sensor_id;sensor_type;location;lat;lon;timestamp;temperature;humidity
32907;DHT22;19259;51.590;5.320;2022-11-15T00:01:14;7.30;99.90
32907;DHT22;19259;51.590;5.320;2022-11-15T00:03:39;7.30;99.90
32907;DHT22;19259;51.590;5.320;2022-11-15T00:06:06;7.20;99.90
32907;DHT22;19259;51.590;5.320;2022-11-15T00:08:34;7.30;99.90
32907;DHT22;19259;51.590;5.320;2022-11-15T00:11:02;7.30;99.90
32907;DHT22;19259;51.590;5.320;2022-11-15T00:13:30;7.40;99.90
32907;DHT22;19259;51.590;5.320;2022-11-15T00:15:59;7.40;99.90
32907;DHT22;19259;51.590;5.320;2022-11-15T00:18:28;7.40;99.90
32907;DHT22;19259;51.590;5.320;2022-11-15T00:21:02;7.50;99.90
32907;DHT22;19259;51.590;5.320;2022-11-15T00:23:25;7.50;99.90
32907;DHT22;19259;51.590;5.320;2022-11-15T00:25:57;7.60;99.90
32907;DHT22;19259;51.590;5.320;2022-11-15T00:28:25;7.70;99.90
32907;DHT22;19259;51.590;5.320;2022-11-15T00:30:53;7.70;99.90
32907;DHT22;19259;51.590;5.320;2022-11-15T00:33:21;7.70;99.90
32907;DHT22;19259;51.590;5.320;2022-11-15T00:35:49;7.80;99.90
32907;DHT22;19259;51.590;5.320;2022-11-15T00:38:16;7.80;99.90
32907;DHT22;19259;51.590;5.320;2022-11-15T00:40:44;7.90;99.90
32907;DHT22;19259;51.590;5.320;2022-11-15T00:43:11;7.90;99.90
32907;DHT22;19259;51.590;5.320;2022-11-15T00:45:39;7.90;99.90
32907;DHT22;19259;51.590;5.320;2022-11-15T00:48:06;8.00;99.90
32907;DHT22;19259;51.590;5.320;2022-11-15T00:50:37;8.00;99.90
32907;DHT22;19259;51.590;5.320;2022-11-15T00:53:04;8.10;99.90
32907;DHT22;19259;51.590;5.320;2022-11-15T00:55:34;8.10;99.90
32907;DHT22;19259;51.590;5.320;2022-11-15T00:58:01;8.10;99.90
32907;DHT22;19259;51.590;5.320;2022-11-15T01:00:29;8.20;99.90
32907;DHT22;19259;51.590;5.320;2022-11-15T01:02:56;8.20;99.90
32907;DHT22;19259;51.590;5.320;2022-11-15T01:05:24;8.30;99.90
32907;DHT22;19259;51.590;5.320;2022-11-15T01:07:53;8.30;99.90
32907;DHT22;19259;51.590;5.320;2022-11-15T01:10:23;8.40;99.90
32907;DHT22;19259;51.590;5.320;2022-11-15T01:12:52;8.40;99.90
32907;DHT22;19259;51.590;5.320;2022-11-15T01:15:20;8.50;99.90
32907;DHT22;19259;51.590;5.320;2022-11-15T01:17:47;8.50;99.90
32907;DHT22;19259;51.590;5.320;2022-11-15T01:20:15;8.60;99.90
32907;DHT22;19259;51.590;5.320;2022-11-15T01:22:43;8.60;99.90
32907;DHT22;19259;51.590;5.320;2022-11-15T01:25:10;8.60;99.90
32907;DHT22;19259;51.590;5.320;2022-11-15T01:27:38;8.60;99.90
32907;DHT22;19259;51.590;5.320;2022-11-15T01:30:08;8.60;99.90
32907;DHT22;19259;51.590;5.320;2022-11-15T01:32:35;8.70;99.90
32907;DHT22;19259;51.590;5.320;2022-11-15T01:35:04;8.70;99.90
32907;DHT22;19259;51.590;5.320;2022-11-15T01:37:34;8.70;99.90
32907;DHT22;19259;51.590;5.320;2022-11-15T01:40:04;8.70;99.90
32907;DHT22;19259;51.590;5.320;2022-11-15T01:42:31;8.70;99.90
32907;DHT22;19259;51.590;5.320;2022-11-15T01:44:59;8.80;99.90
32907;DHT22;19259;51.590;5.320;2022-11-15T01:47:34;8.80;99.90
32907;DHT22;19259;51.590;5.320;2022-11-15T01:50:10;8.80;99.90
32907;DHT22;19259;51.590;5.320;2022-11-15T01:52:35;8.80;99.90
32907;DHT22;19259;51.590;5.320;2022-11-15T01:55:06;8.90;99.90
32907;DHT22;19259;51.590;5.320;2022-11-15T01:57:34;8.90;99.90
32907;DHT22;19259;51.590;5.320;2022-11-15T02:00:04;8.90;99.90
32907;DHT22;19259;51.590;5.320;2022-11-15T02:02:33;8.90;99.90
32907;DHT22;19259;51.590;5.320;2022-11-15T02:05:03;9.00;99.90
32907;DHT22;19259;51.590;5.320;2022-11-15T02:07:31;9.00;99.90
32907;DHT22;19259;51.590;5.320;2022-11-15T02:10:10;9.00;99.90
32907;DHT22;19259;51.590;5.320;2022-11-15T02:12:36;9.00;99.90
32907;DHT22;19259;51.590;5.320;2022-11-15T02:15:05;9.00;99.90
32907;DHT22;19259;51.590;5.320;2022-11-15T02:17:40;9.00;99.90
32907;DHT22;19259;51.590;5.320;2022-11-15T02:28:16;9.20;99.90
32907;DHT22;19259;51.590;5.320;2022-11-15T02:30:52;9.20;99.90
32907;DHT22;19259;51.590;5.320;2022-11-15T02:33:24;9.20;99.90
32907;DHT22;19259;51.590;5.320;2022-11-15T02:35:58;9.30;99.90
32907;DHT22;19259;51.590;5.320;2022-11-15T02:41:08;9.40;99.90
32907;DHT22;19259;51.590;5.320;2022-11-15T02:43:57;9.50;99.90
32907;DHT22;19259;51.590;5.320;2022-11-15T02:46:42;9.50;99.90
32907;DHT22;19259;51.590;5.320;2022-11-15T02:49:31;9.60;99.90
32907;DHT22;19259;51.590;5.320;2022-11-15T02:51:58;9.60;99.90
32907;DHT22;19259;51.590;5.320;2022-11-15T02:54:31;9.70;99.90
32907;DHT22;19259;51.590;5.320;2022-11-15T02:57:10;9.80;99.90
32907;DHT22;19259;51.590;5.320;2022-11-15T02:59:47;9.80;99.90
32907;DHT22;19259;51.590;5.320;2022-11-15T03:13:21;9.90;99.90
32907;DHT22;19259;51.590;5.320;2022-11-15T03:15:48;9.90;99.90
32907;DHT22;19259;51.590;5.320;2022-11-15T03:18:24;10.00;99.90
32907;DHT22;19259;51.590;5.320;2022-11-15T03:20:48;10.10;99.90
32907;DHT22;19259;51.590;5.320;2022-11-15T03:23:17;10.10;99.90
32907;DHT22;19259;51.590;5.320;2022-11-15T03:25:47;10.10;99.90
32907;DHT22;19259;51.590;5.320;2022-11-15T03:28:19;10.10;99.90
32907;DHT22;19259;51.590;5.320;2022-11-15T03:30:46;10.20;99.90
32907;DHT22;19259;51.590;5.320;2022-11-15T03:33:15;10.10;99.90
32907;DHT22;19259;51.590;5.320;2022-11-15T03:35:45;10.20;99.90
32907;DHT22;19259;51.590;5.320;2022-11-15T03:38:24;10.20;99.90
32907;DHT22;19259;51.590;5.320;2022-11-15T03:41:00;10.20;99.90
32907;DHT22;19259;51.590;5.320;2022-11-15T03:46:23;10.20;99.90
32907;DHT22;19259;51.590;5.320;2022-11-15T03:48:59;10.20;99.90
32907;DHT22;19259;51.590;5.320;2022-11-15T03:51:26;10.20;99.90
32907;DHT22;19259;51.590;5.320;2022-11-15T03:53:53;10.10;99.90
32907;DHT22;19259;51.590;5.320;2022-11-15T03:56:21;10.10;99.90
32907;DHT22;19259;51.590;5.320;2022-11-15T03:58:48;10.00;99.90
32907;DHT22;19259;51.590;5.320;2022-11-15T04:01:15;10.00;99.90
32907;DHT22;19259;51.590;5.320;2022-11-15T04:03:43;10.00;99.90
32907;DHT22;19259;51.590;5.320;2022-11-15T04:06:14;10.10;99.90
32907;DHT22;19259;51.590;5.320;2022-11-15T04:08:40;10.10;99.90
32907;DHT22;19259;51.590;5.320;2022-11-15T04:11:07;10.10;99.90
32907;DHT22;19259;51.590;5.320;2022-11-15T04:13:35;10.10;99.90
32907;DHT22;19259;51.590;5.320;2022-11-15T04:16:02;10.20;99.90
32907;DHT22;19259;51.590;5.320;2022-11-15T04:18:30;10.20;99.90
32907;DHT22;19259;51.590;5.320;2022-11-15T04:20:57;10.20;99.90
32907;DHT22;19259;51.590;5.320;2022-11-15T04:23:43;10.20;99.90
32907;DHT22;19259;51.590;5.320;2022-11-15T04:26:28;10.10;99.90
32907;DHT22;19259;51.590;5.320;2022-11-15T04:28:56;10.20;99.90
32907;DHT22;19259;51.590;5.320;2022-11-15T04:31:41;10.10;99.90
32907;DHT22;19259;51.590;5.320;2022-11-15T04:34:09;10.20;99.90
32907;DHT22;19259;51.590;5.320;2022-11-15T04:36:36;10.20;99.90
32907;DHT22;19259;51.590;5.320;2022-11-15T04:39:21;10.20;99.90
32907;DHT22;19259;51.590;5.320;2022-11-15T04:41:49;10.20;99.90
32907;DHT22;19259;51.590;5.320;2022-11-15T04:44:18;10.20;99.90
32907;DHT22;19259;51.590;5.320;2022-11-15T04:46:45;10.20;99.90
32907;DHT22;19259;51.590;5.320;2022-11-15T04:49:13;10.20;99.90
32907;DHT22;19259;51.590;5.320;2022-11-15T04:51:41;10.20;99.90
32907;DHT22;19259;51.590;5.320;2022-11-15T04:54:08;10.30;99.90
32907;DHT22;19259;51.590;5.320;2022-11-15T04:56:36;10.30;99.90
32907;DHT22;19259;51.590;5.320;2022-11-15T04:59:03;10.20;99.90
32907;DHT22;19259;51.590;5.320;2022-11-15T05:01:31;10.30;99.90
32907;DHT22;19259;51.590;5.320;2022-11-15T05:04:01;10.20;99.90
32907;DHT22;19259;51.590;5.320;2022-11-15T05:06:49;10.30;99.90
32907;DHT22;19259;51.590;5.320;2022-11-15T05:09:18;10.20;99.90
32907;DHT22;19259;51.590;5.320;2022-11-15T05:11:51;10.20;99.90
32907;DHT22;19259;51.590;5.320;2022-11-15T05:14:16;10.30;99.90
32907;DHT22;19259;51.590;5.320;2022-11-15T05:16:44;10.30;99.90
32907;DHT22;19259;51.590;5.320;2022-11-15T05:19:11;10.30;99.90
32907;DHT22;19259;51.590;5.320;2022-11-15T05:21:39;10.40;99.90
32907;DHT22;19259;51.590;5.320;2022-11-15T05:24:08;10.40;99.90
32907;DHT22;19259;51.590;5.320;2022-11-15T05:26:36;10.30;99.90
32907;DHT22;19259;51.590;5.320;2022-11-15T05:29:03;10.30;99.90
32907;DHT22;19259;51.590;5.320;2022-11-15T05:31:31;10.30;99.90
32907;DHT22;19259;51.590;5.320;2022-11-15T05:33:58;10.30;99.90
32907;DHT22;19259;51.590;5.320;2022-11-15T05:36:33;10.30;99.90
32907;DHT22;19259;51.590;5.320;2022-11-15T05:39:01;10.30;99.90
32907;DHT22;19259;51.590;5.320;2022-11-15T05:41:35;10.30;99.90
32907;DHT22;19259;51.590;5.320;2022-11-15T05:44:11;10.30;99.90
32907;DHT22;19259;51.590;5.320;2022-11-15T05:46:39;10.30;99.90
32907;DHT22;19259;51.590;5.320;2022-11-15T05:49:10;10.30;99.90
32907;DHT22;19259;51.590;5.320;2022-11-15T05:51:39;10.30;99.90
32907;DHT22;19259;51.590;5.320;2022-11-15T05:54:07;10.20;99.90
32907;DHT22;19259;51.590;5.320;2022-11-15T05:56:35;10.20;99.90
32907;DHT22;19259;51.590;5.320;2022-11-15T05:59:02;10.30;99.90
32907;DHT22;19259;51.590;5.320;2022-11-15T06:01:30;10.30;99.90
32907;DHT22;19259;51.590;5.320;2022-11-15T06:03:59;10.20;99.90
32907;DHT22;19259;51.590;5.320;2022-11-15T06:06:29;10.30;99.90
32907;DHT22;19259;51.590;5.320;2022-11-15T06:08:56;10.30;99.90
32907;DHT22;19259;51.590;5.320;2022-11-15T06:11:24;10.20;99.90
32907;DHT22;19259;51.590;5.320;2022-11-15T06:13:55;10.20;99.90
32907;DHT22;19259;51.590;5.320;2022-11-15T06:16:23;10.40;99.90
32907;DHT22;19259;51.590;5.320;2022-11-15T06:18:50;10.30;99.90
32907;DHT22;19259;51.590;5.320;2022-11-15T06:21:18;10.30;99.90
32907;DHT22;19259;51.590;5.320;2022-11-15T06:23:46;10.30;99.90
32907;DHT22;19259;51.590;5.320;2022-11-15T06:26:13;10.40;99.90
32907;DHT22;19259;51.590;5.320;2022-11-15T06:28:41;10.30;99.90
32907;DHT22;19259;51.590;5.320;2022-11-15T06:31:10;10.30;99.90
32907;DHT22;19259;51.590;5.320;2022-11-15T06:33:40;10.40;99.90
32907;DHT22;19259;51.590;5.320;2022-11-15T06:36:11;10.30;99.90
32907;DHT22;19259;51.590;5.320;2022-11-15T06:38:41;10.40;99.90
32907;DHT22;19259;51.590;5.320;2022-11-15T06:41:10;10.40;99.90
32907;DHT22;19259;51.590;5.320;2022-11-15T06:43:38;10.40;99.90
32907;DHT22;19259;51.590;5.320;2022-11-15T06:46:06;10.30;99.90
32907;DHT22;19259;51.590;5.320;2022-11-15T06:48:35;10.40;99.90
32907;DHT22;19259;51.590;5.320;2022-11-15T06:51:05;10.40;99.90
32907;DHT22;19259;51.590;5.320;2022-11-15T06:53:35;10.40;99.90
32907;DHT22;19259;51.590;5.320;2022-11-15T06:56:04;10.30;99.90
32907;DHT22;19259;51.590;5.320;2022-11-15T06:58:32;10.30;99.90
32907;DHT22;19259;51.590;5.320;2022-11-15T07:01:04;10.30;99.90
32907;DHT22;19259;51.590;5.320;2022-11-15T07:03:35;10.30;99.90
32907;DHT22;19259;51.590;5.320;2022-11-15T07:06:03;10.30;99.90
32907;DHT22;19259;51.590;5.320;2022-11-15T07:08:30;10.40;99.90
32907;DHT22;19259;51.590;5.320;2022-11-15T07:10:59;10.30;99.90
32907;DHT22;19259;51.590;5.320;2022-11-15T07:13:30;10.40;99.90
32907;DHT22;19259;51.590;5.320;2022-11-15T07:16:04;10.40;99.90
32907;DHT22;19259;51.590;5.320;2022-11-15T07:18:39;10.40;99.90
32907;DHT22;19259;51.590;5.320;2022-11-15T07:21:04;10.40;99.90
32907;DHT22;19259;51.590;5.320;2022-11-15T07:23:33;10.40;99.90
32907;DHT22;19259;51.590;5.320;2022-11-15T07:26:03;10.40;99.90
32907;DHT22;19259;51.590;5.320;2022-11-15T07:28:30;10.40;99.90
32907;DHT22;19259;51.590;5.320;2022-11-15T07:30:57;10.30;99.90
32907;DHT22;19259;51.590;5.320;2022-11-15T07:33:25;10.30;99.90
32907;DHT22;19259;51.590;5.320;2022-11-15T07:35:52;10.30;99.90
32907;DHT22;19259;51.590;5.320;2022-11-15T07:38:20;10.30;99.90
32907;DHT22;19259;51.590;5.320;2022-11-15T07:40:54;10.30;99.90
32907;DHT22;19259;51.590;5.320;2022-11-15T07:43:21;10.30;99.90
32907;DHT22;19259;51.590;5.320;2022-11-15T07:45:48;10.20;99.90
32907;DHT22;19259;51.590;5.320;2022-11-15T07:48:16;10.10;99.90
32907;DHT22;19259;51.590;5.320;2022-11-15T07:50:44;10.20;99.90
32907;DHT22;19259;51.590;5.320;2022-11-15T07:53:13;10.20;99.90
32907;DHT22;19259;51.590;5.320;2022-11-15T07:55:41;10.20;99.90
32907;DHT22;19259;51.590;5.320;2022-11-15T07:58:11;10.30;99.90
32907;DHT22;19259;51.590;5.320;2022-11-15T08:00:39;10.30;99.90
32907;DHT22;19259;51.590;5.320;2022-11-15T08:03:09;10.40;99.90
32907;DHT22;19259;51.590;5.320;2022-11-15T08:05:38;10.50;99.90
32907;DHT22;19259;51.590;5.320;2022-11-15T08:08:07;10.50;99.90
32907;DHT22;19259;51.590;5.320;2022-11-15T08:10:37;10.50;99.90
32907;DHT22;19259;51.590;5.320;2022-11-15T08:13:08;10.50;99.90
32907;DHT22;19259;51.590;5.320;2022-11-15T08:15:37;10.40;99.90
32907;DHT22;19259;51.590;5.320;2022-11-15T08:18:09;10.40;99.90
32907;DHT22;19259;51.590;5.320;2022-11-15T08:20:36;10.40;99.90
32907;DHT22;19259;51.590;5.320;2022-11-15T08:23:04;10.40;99.90
32907;DHT22;19259;51.590;5.320;2022-11-15T08:25:33;10.40;99.90
32907;DHT22;19259;51.590;5.320;2022-11-15T08:28:04;10.40;99.90
32907;DHT22;19259;51.590;5.320;2022-11-15T08:30:34;10.50;99.90
32907;DHT22;19259;51.590;5.320;2022-11-15T08:33:03;10.40;99.90
32907;DHT22;19259;51.590;5.320;2022-11-15T08:35:31;10.30;99.90
32907;DHT22;19259;51.590;5.320;2022-11-15T08:37:58;10.40;99.90
32907;DHT22;19259;51.590;5.320;2022-11-15T08:40:26;10.40;99.90
32907;DHT22;19259;51.590;5.320;2022-11-15T08:42:53;10.40;99.90
32907;DHT22;19259;51.590;5.320;2022-11-15T08:45:21;10.40;99.90
32907;DHT22;19259;51.590;5.320;2022-11-15T08:47:48;10.40;99.90
32907;DHT22;19259;51.590;5.320;2022-11-15T08:50:16;10.40;99.90
32907;DHT22;19259;51.590;5.320;2022-11-15T08:52:45;10.50;99.90
32907;DHT22;19259;51.590;5.320;2022-11-15T08:55:15;10.50;99.90
32907;DHT22;19259;51.590;5.320;2022-11-15T08:57:42;10.60;99.90
32907;DHT22;19259;51.590;5.320;2022-11-15T09:00:11;10.70;99.90
32907;DHT22;19259;51.590;5.320;2022-11-15T09:02:40;10.80;99.90
32907;DHT22;19259;51.590;5.320;2022-11-15T09:05:08;10.90;99.90
32907;DHT22;19259;51.590;5.320;2022-11-15T09:07:35;10.80;99.90
32907;DHT22;19259;51.590;5.320;2022-11-15T09:10:03;10.70;99.90
32907;DHT22;19259;51.590;5.320;2022-11-15T09:12:31;10.80;99.90
32907;DHT22;19259;51.590;5.320;2022-11-15T09:14:59;10.90;99.90
32907;DHT22;19259;51.590;5.320;2022-11-15T09:17:28;10.90;99.90
32907;DHT22;19259;51.590;5.320;2022-11-15T09:19:55;10.90;99.90
32907;DHT22;19259;51.590;5.320;2022-11-15T09:22:23;10.90;99.90
32907;DHT22;19259;51.590;5.320;2022-11-15T09:24:50;10.80;99.90
32907;DHT22;19259;51.590;5.320;2022-11-15T09:27:18;10.80;99.90
32907;DHT22;19259;51.590;5.320;2022-11-15T09:29:45;10.80;99.90
32907;DHT22;19259;51.590;5.320;2022-11-15T09:32:13;10.90;99.90
32907;DHT22;19259;51.590;5.320;2022-11-15T09:34:41;10.80;99.90
32907;DHT22;19259;51.590;5.320;2022-11-15T09:37:08;10.90;99.90
32907;DHT22;19259;51.590;5.320;2022-11-15T09:39:36;10.90;99.90
32907;DHT22;19259;51.590;5.320;2022-11-15T09:42:30;11.00;99.90
32907;DHT22;19259;51.590;5.320;2022-11-15T09:50:48;11.20;99.90
32907;DHT22;19259;51.590;5.320;2022-11-15T09:53:32;11.20;99.90
32907;DHT22;19259;51.590;5.320;2022-11-15T09:56:05;11.30;99.90
32907;DHT22;19259;51.590;5.320;2022-11-15T09:59:28;11.30;99.90
32907;DHT22;19259;51.590;5.320;2022-11-15T10:01:16;11.30;99.90
32907;DHT22;19259;51.590;5.320;2022-11-15T10:03:40;11.30;99.90
32907;DHT22;19259;51.590;5.320;2022-11-15T10:06:14;11.30;99.90
32907;DHT22;19259;51.590;5.320;2022-11-15T10:11:28;11.40;99.90
32907;DHT22;19259;51.590;5.320;2022-11-15T10:13:59;11.50;99.90
32907;DHT22;19259;51.590;5.320;2022-11-15T10:16:45;11.60;99.90
32907;DHT22;19259;51.590;5.320;2022-11-15T10:22:01;11.40;99.90
32907;DHT22;19259;51.590;5.320;2022-11-15T10:24:32;11.30;99.90
32907;DHT22;19259;51.590;5.320;2022-11-15T10:26:58;11.20;99.90
32907;DHT22;19259;51.590;5.320;2022-11-15T10:29:25;11.20;99.90
32907;DHT22;19259;51.590;5.320;2022-11-15T10:31:53;11.20;99.90
32907;DHT22;19259;51.590;5.320;2022-11-15T10:34:25;11.20;99.90
32907;DHT22;19259;51.590;5.320;2022-11-15T10:36:59;11.30;99.90
32907;DHT22;19259;51.590;5.320;2022-11-15T10:39:34;11.30;99.90
32907;DHT22;19259;51.590;5.320;2022-11-15T10:41:57;11.40;99.90
32907;DHT22;19259;51.590;5.320;2022-11-15T10:44:28;11.40;99.90
32907;DHT22;19259;51.590;5.320;2022-11-15T10:49:30;11.60;99.90
32907;DHT22;19259;51.590;5.320;2022-11-15T10:52:12;11.60;99.90
32907;DHT22;19259;51.590;5.320;2022-11-15T10:54:47;11.70;99.90
32907;DHT22;19259;51.590;5.320;2022-11-15T10:57:17;11.80;99.90
32907;DHT22;19259;51.590;5.320;2022-11-15T10:59:56;11.80;99.90
32907;DHT22;19259;51.590;5.320;2022-11-15T11:04:56;11.90;99.90
32907;DHT22;19259;51.590;5.320;2022-11-15T11:07:33;11.90;99.90
32907;DHT22;19259;51.590;5.320;2022-11-15T11:12:32;12.10;99.90
32907;DHT22;19259;51.590;5.320;2022-11-15T11:15:09;12.20;99.90
32907;DHT22;19259;51.590;5.320;2022-11-15T11:20:23;11.90;99.90
32907;DHT22;19259;51.590;5.320;2022-11-15T11:23:17;11.80;99.90
32907;DHT22;19259;51.590;5.320;2022-11-15T11:28:53;11.80;99.90
32907;DHT22;19259;51.590;5.320;2022-11-15T11:31:31;11.70;99.90
32907;DHT22;19259;51.590;5.320;2022-11-15T11:34:12;11.70;99.90
32907;DHT22;19259;51.590;5.320;2022-11-15T11:39:37;11.80;99.90
32907;DHT22;19259;51.590;5.320;2022-11-15T11:47:35;12.20;99.90
32907;DHT22;19259;51.590;5.320;2022-11-15T11:53:02;12.40;99.90
32907;DHT22;19259;51.590;5.320;2022-11-15T11:55:44;12.40;99.90
32907;DHT22;19259;51.590;5.320;2022-11-15T11:58:21;12.60;99.90
32907;DHT22;19259;51.590;5.320;2022-11-15T12:01:16;12.50;99.90
32907;DHT22;19259;51.590;5.320;2022-11-15T12:03:49;12.50;99.90
32907;DHT22;19259;51.590;5.320;2022-11-15T12:06:37;12.50;99.90
32907;DHT22;19259;51.590;5.320;2022-11-15T12:09:19;12.60;99.90
32907;DHT22;19259;51.590;5.320;2022-11-15T12:17:01;12.80;99.90
32907;DHT22;19259;51.590;5.320;2022-11-15T12:19:30;12.80;99.90
32907;DHT22;19259;51.590;5.320;2022-11-15T12:22:10;12.70;99.90
32907;DHT22;19259;51.590;5.320;2022-11-15T12:24:43;12.70;99.90
32907;DHT22;19259;51.590;5.320;2022-11-15T12:27:41;12.80;99.90
32907;DHT22;19259;51.590;5.320;2022-11-15T12:29:58;12.80;99.90
32907;DHT22;19259;51.590;5.320;2022-11-15T12:32:33;12.70;99.90
32907;DHT22;19259;51.590;5.320;2022-11-15T12:35:01;12.60;99.90
32907;DHT22;19259;51.590;5.320;2022-11-15T12:40:28;12.50;99.90
32907;DHT22;19259;51.590;5.320;2022-11-15T12:43:05;12.50;99.90
32907;DHT22;19259;51.590;5.320;2022-11-15T12:45:35;12.50;99.90
32907;DHT22;19259;51.590;5.320;2022-11-15T12:53:27;12.30;99.90
32907;DHT22;19259;51.590;5.320;2022-11-15T12:58:46;12.30;99.90
32907;DHT22;19259;51.590;5.320;2022-11-15T13:01:52;12.30;99.90
32907;DHT22;19259;51.590;5.320;2022-11-15T13:06:52;12.30;99.90
32907;DHT22;19259;51.590;5.320;2022-11-15T13:15:51;12.30;99.90
32907;DHT22;19259;51.590;5.320;2022-11-15T13:17:33;12.40;99.90
32907;DHT22;19259;51.590;5.320;2022-11-15T13:22:46;12.40;99.90
32907;DHT22;19259;51.590;5.320;2022-11-15T13:26:00;12.50;99.90
32907;DHT22;19259;51.590;5.320;2022-11-15T13:28:47;12.60;99.90
32907;DHT22;19259;51.590;5.320;2022-11-15T13:31:35;12.60;99.90
32907;DHT22;19259;51.590;5.320;2022-11-15T13:34:25;12.60;99.90
32907;DHT22;19259;51.590;5.320;2022-11-15T13:36:53;12.70;99.90
32907;DHT22;19259;51.590;5.320;2022-11-15T13:39:29;12.70;99.90
32907;DHT22;19259;51.590;5.320;2022-11-15T13:41:58;12.60;99.90
32907;DHT22;19259;51.590;5.320;2022-11-15T13:44:28;12.60;99.90
32907;DHT22;19259;51.590;5.320;2022-11-15T13:47:04;12.50;99.90
32907;DHT22;19259;51.590;5.320;2022-11-15T13:49:33;12.50;99.90
32907;DHT22;19259;51.590;5.320;2022-11-15T13:52:03;12.50;99.90
32907;DHT22;19259;51.590;5.320;2022-11-15T13:55:12;12.50;99.90
32907;DHT22;19259;51.590;5.320;2022-11-15T13:57:18;12.60;99.90
32907;DHT22;19259;51.590;5.320;2022-11-15T13:59:51;12.50;99.90
32907;DHT22;19259;51.590;5.320;2022-11-15T14:02:31;12.50;99.90
32907;DHT22;19259;51.590;5.320;2022-11-15T14:04:55;12.50;99.90
32907;DHT22;19259;51.590;5.320;2022-11-15T14:07:25;12.50;99.90
32907;DHT22;19259;51.590;5.320;2022-11-15T14:09:54;12.40;99.90
32907;DHT22;19259;51.590;5.320;2022-11-15T14:14:56;12.40;99.90
32907;DHT22;19259;51.590;5.320;2022-11-15T14:17:35;12.40;99.90
32907;DHT22;19259;51.590;5.320;2022-11-15T14:20:51;12.40;99.90
32907;DHT22;19259;51.590;5.320;2022-11-15T14:22:34;12.40;99.90
32907;DHT22;19259;51.590;5.320;2022-11-15T14:25:23;12.30;99.90
32907;DHT22;19259;51.590;5.320;2022-11-15T14:30:45;12.30;99.90
32907;DHT22;19259;51.590;5.320;2022-11-15T14:33:25;12.30;99.90
32907;DHT22;19259;51.590;5.320;2022-11-15T14:35:53;12.30;99.90
32907;DHT22;19259;51.590;5.320;2022-11-15T14:38:25;12.30;99.90
32907;DHT22;19259;51.590;5.320;2022-11-15T14:40:53;12.30;99.90
32907;DHT22;19259;51.590;5.320;2022-11-15T14:43:22;12.20;99.90
32907;DHT22;19259;51.590;5.320;2022-11-15T14:45:50;12.20;99.90
32907;DHT22;19259;51.590;5.320;2022-11-15T14:48:18;12.20;99.90
32907;DHT22;19259;51.590;5.320;2022-11-15T14:50:45;12.20;99.90
32907;DHT22;19259;51.590;5.320;2022-11-15T14:53:15;12.20;99.90
32907;DHT22;19259;51.590;5.320;2022-11-15T14:55:44;12.20;99.90
32907;DHT22;19259;51.590;5.320;2022-11-15T14:58:14;12.20;99.90
32907;DHT22;19259;51.590;5.320;2022-11-15T15:00:41;12.20;99.90
32907;DHT22;19259;51.590;5.320;2022-11-15T15:03:09;12.20;99.90
32907;DHT22;19259;51.590;5.320;2022-11-15T15:05:40;12.10;99.90
32907;DHT22;19259;51.590;5.320;2022-11-15T15:08:08;12.10;99.90
32907;DHT22;19259;51.590;5.320;2022-11-15T15:10:42;12.20;99.90
32907;DHT22;19259;51.590;5.320;2022-11-15T15:13:21;12.20;99.90
32907;DHT22;19259;51.590;5.320;2022-11-15T15:15:50;12.20;99.90
32907;DHT22;19259;51.590;5.320;2022-11-15T15:18:21;12.20;99.90
32907;DHT22;19259;51.590;5.320;2022-11-15T15:20:55;12.10;99.90
32907;DHT22;19259;51.590;5.320;2022-11-15T15:23:23;12.10;99.90
32907;DHT22;19259;51.590;5.320;2022-11-15T15:25:52;12.10;99.90
32907;DHT22;19259;51.590;5.320;2022-11-15T15:28:19;12.10;99.90
32907;DHT22;19259;51.590;5.320;2022-11-15T15:30:47;12.10;99.90
32907;DHT22;19259;51.590;5.320;2022-11-15T15:33:16;12.10;99.90
32907;DHT22;19259;51.590;5.320;2022-11-15T15:35:44;12.10;99.90
32907;DHT22;19259;51.590;5.320;2022-11-15T15:38:12;12.10;99.90
32907;DHT22;19259;51.590;5.320;2022-11-15T15:40:41;12.10;99.90
32907;DHT22;19259;51.590;5.320;2022-11-15T15:43:09;12.10;99.90
32907;DHT22;19259;51.590;5.320;2022-11-15T15:45:38;12.10;99.90
32907;DHT22;19259;51.590;5.320;2022-11-15T15:48:10;12.00;99.90
32907;DHT22;19259;51.590;5.320;2022-11-15T15:50:35;12.00;99.90
32907;DHT22;19259;51.590;5.320;2022-11-15T15:53:03;12.00;99.90
32907;DHT22;19259;51.590;5.320;2022-11-15T15:55:32;12.10;99.90
32907;DHT22;19259;51.590;5.320;2022-11-15T15:57:59;12.00;99.90
32907;DHT22;19259;51.590;5.320;2022-11-15T16:00:27;12.00;99.90
32907;DHT22;19259;51.590;5.320;2022-11-15T16:02:55;12.10;99.90
32907;DHT22;19259;51.590;5.320;2022-11-15T16:05:27;12.00;99.90
32907;DHT22;19259;51.590;5.320;2022-11-15T16:07:51;12.00;99.90
32907;DHT22;19259;51.590;5.320;2022-11-15T16:10:32;12.10;99.90
32907;DHT22;19259;51.590;5.320;2022-11-15T16:12:56;12.00;99.90
32907;DHT22;19259;51.590;5.320;2022-11-15T16:15:26;12.10;99.90
32907;DHT22;19259;51.590;5.320;2022-11-15T16:17:56;12.00;99.90
32907;DHT22;19259;51.590;5.320;2022-11-15T16:23:09;12.00;99.90
32907;DHT22;19259;51.590;5.320;2022-11-15T16:25:45;11.90;99.90
32907;DHT22;19259;51.590;5.320;2022-11-15T16:28:18;11.90;99.90
32907;DHT22;19259;51.590;5.320;2022-11-15T16:30:46;11.80;99.90
32907;DHT22;19259;51.590;5.320;2022-11-15T16:33:14;11.70;99.90
32907;DHT22;19259;51.590;5.320;2022-11-15T16:35:43;11.70;99.90
32907;DHT22;19259;51.590;5.320;2022-11-15T16:38:13;11.70;99.90
32907;DHT22;19259;51.590;5.320;2022-11-15T16:40:41;11.70;99.90
32907;DHT22;19259;51.590;5.320;2022-11-15T16:43:09;11.60;99.90
32907;DHT22;19259;51.590;5.320;2022-11-15T16:45:40;11.50;99.90
32907;DHT22;19259;51.590;5.320;2022-11-15T16:48:28;11.50;99.90
32907;DHT22;19259;51.590;5.320;2022-11-15T16:50:41;11.40;99.90
32907;DHT22;19259;51.590;5.320;2022-11-15T16:53:09;11.40;99.90
32907;DHT22;19259;51.590;5.320;2022-11-15T16:55:36;11.40;99.90
32907;DHT22;19259;51.590;5.320;2022-11-15T16:58:04;11.30;99.90
32907;DHT22;19259;51.590;5.320;2022-11-15T17:00:32;11.30;99.90
32907;DHT22;19259;51.590;5.320;2022-11-15T17:02:59;11.30;99.90
32907;DHT22;19259;51.590;5.320;2022-11-15T17:05:28;11.20;99.90
32907;DHT22;19259;51.590;5.320;2022-11-15T17:07:56;11.20;99.90
32907;DHT22;19259;51.590;5.320;2022-11-15T17:10:28;11.20;99.90
32907;DHT22;19259;51.590;5.320;2022-11-15T17:12:55;11.20;99.90
32907;DHT22;19259;51.590;5.320;2022-11-15T17:15:23;11.20;99.90
32907;DHT22;19259;51.590;5.320;2022-11-15T17:17:52;11.20;99.90
32907;DHT22;19259;51.590;5.320;2022-11-15T17:20:23;11.10;99.90
32907;DHT22;19259;51.590;5.320;2022-11-15T17:22:51;11.10;99.90
32907;DHT22;19259;51.590;5.320;2022-11-15T17:25:18;11.10;99.90
32907;DHT22;19259;51.590;5.320;2022-11-15T17:27:46;11.00;99.90
32907;DHT22;19259;51.590;5.320;2022-11-15T17:30:15;11.00;99.90